createdAt,value
2019-06-26T03:14:26.993Z,10.80
2019-06-26T03:19:24.127Z,10.93
2019-06-26T03:24:21.221Z,11.37
2019-06-26T03:29:18.913Z,11.57
2019-06-26T03:34:15.883Z,10.93
2019-06-26T03:39:12.959Z,10.57
2019-06-26T03:44:09.958Z,10.53
2019-06-26T03:49:07.103Z,13.80
2019-06-26T03:54:04.158Z,10.47
2019-06-26T03:59:01.206Z,10.17
2019-06-26T04:03:58.176Z,11.27
2019-06-26T04:08:55.276Z,10.57
2019-06-26T04:13:52.306Z,11.00
2019-06-26T04:18:49.574Z,9.97
2019-06-26T04:23:46.687Z,10.90
2019-06-26T05:23:12.221Z,9.00
2019-06-26T05:42:59.704Z,10.93
2019-06-26T05:47:56.811Z,10.57
2019-06-26T05:52:53.922Z,11.37
2019-06-26T05:57:50.998Z,10.93
2019-06-26T06:02:48.161Z,14.80
2019-06-26T06:07:45.260Z,11.20
2019-06-26T06:12:42.287Z,10.00
2019-06-26T06:17:40.382Z,10.00
2019-06-26T06:22:37.510Z,9.20
2019-06-26T06:27:35.126Z,12.00
2019-06-26T06:32:32.259Z,10.10
2019-06-26T06:37:29.335Z,10.60
2019-06-26T06:42:26.820Z,9.53
2019-06-26T06:52:21.038Z,14.78
2019-06-26T06:57:18.118Z,13.70
2019-06-26T09:01:08.194Z,11.60
2019-06-26T09:06:05.348Z,6.70
2019-06-26T09:11:04.765Z,6.90
2019-06-26T09:25:55.445Z,9.15
2019-06-26T11:05:06.905Z,7.67
2019-06-26T12:00:09.569Z,6.03
2019-06-26T12:10:09.643Z,6.72
2019-06-26T12:15:08.511Z,6.60
2019-06-26T12:20:17.658Z,6.25
2019-06-26T12:25:08.762Z,6.62
2019-06-26T12:30:07.207Z,14.20
2019-06-26T12:35:07.469Z,6.03
2019-06-26T12:40:06.940Z,6.53
2019-06-26T12:45:10.312Z,9.10
2019-06-26T12:50:10.581Z,4.97
2019-06-26T12:55:07.906Z,6.00
2019-06-26T13:00:11.260Z,5.40
2019-06-26T13:05:08.645Z,5.03
2019-06-26T13:10:07.931Z,5.97
2019-06-26T13:15:08.081Z,5.65
2019-06-26T13:20:10.695Z,6.65
2019-06-26T13:25:09.550Z,6.70
2019-06-26T13:30:07.176Z,5.83
2019-06-26T13:35:05.917Z,5.30
2019-06-26T13:40:05.341Z,7.83
2019-06-26T13:45:05.448Z,6.67
2019-06-26T13:50:07.626Z,13.72
2019-06-26T13:55:05.675Z,7.05
2019-06-26T14:00:05.842Z,5.00
2019-06-26T14:05:08.024Z,5.95
2019-06-26T14:10:05.842Z,8.90
2019-06-26T14:15:05.347Z,7.17
2019-06-26T14:20:06.076Z,6.25
2019-06-26T14:25:08.464Z,6.22
2019-06-26T14:30:06.490Z,5.47
2019-06-26T14:35:06.436Z,5.70
2019-06-26T14:40:07.086Z,6.20
2019-06-26T14:45:07.174Z,4.87
2019-06-26T14:50:05.281Z,5.72
2019-06-26T14:55:04.215Z,5.15
2019-06-26T15:00:01.290Z,6.17
2019-06-26T15:04:58.403Z,4.53
2019-06-26T15:09:56.874Z,6.67
2019-06-26T15:14:54.019Z,6.47
2019-06-26T15:19:52.132Z,7.17
2019-06-26T15:24:49.370Z,5.40
2019-06-26T15:29:46.411Z,6.10
2019-06-26T15:34:43.691Z,5.30
2019-06-26T15:39:40.694Z,4.58
2019-06-26T15:44:37.861Z,5.92
2019-06-26T15:49:34.855Z,5.78
2019-06-26T15:54:32.222Z,6.70
2019-06-26T15:59:31.160Z,6.15
2019-06-26T16:04:28.765Z,5.03
2019-06-26T16:09:25.886Z,7.90
2019-06-26T16:14:23.019Z,6.50
2019-06-26T16:19:21.923Z,7.20
2019-06-26T16:24:19.168Z,8.80
2019-06-26T16:29:16.216Z,9.53
2019-06-26T16:34:13.211Z,8.68
2019-06-26T16:39:10.159Z,6.15
2019-06-26T16:44:07.238Z,6.05
2019-06-26T16:49:04.183Z,6.65
2019-06-26T16:54:01.517Z,6.95
2019-06-26T16:58:58.548Z,6.40
2019-06-26T17:03:55.673Z,5.78
2019-06-26T17:08:52.725Z,8.07
2019-06-26T17:13:49.858Z,6.60
2019-06-26T17:18:47.691Z,5.47
2019-06-26T17:23:44.699Z,7.05
2019-06-26T17:28:41.719Z,9.43
2019-06-26T17:33:38.829Z,7.03
2019-06-26T17:38:35.937Z,6.62
2019-06-26T17:43:33.823Z,7.20
2019-06-26T17:48:31.022Z,9.03
2019-06-26T17:53:28.244Z,11.85
2019-06-26T17:58:25.761Z,11.60
2019-06-26T18:03:22.751Z,12.37
2019-06-26T18:08:21.621Z,9.20
2019-06-26T18:13:18.671Z,8.57
2019-06-26T18:18:16.767Z,9.97
2019-06-26T18:23:15.768Z,10.03
2019-06-26T18:33:10.611Z,9.80
2019-06-26T18:38:07.559Z,10.30
2019-06-26T18:43:04.652Z,10.47
2019-06-26T18:48:01.666Z,12.00
2019-06-26T18:52:59.969Z,12.07
2019-06-26T18:57:58.918Z,11.37
2019-06-26T19:02:55.976Z,11.63
2019-06-26T19:07:54.948Z,9.00
2019-06-26T19:12:52.147Z,10.80
2019-06-26T19:17:49.237Z,12.73
2019-06-26T19:22:47.566Z,12.23
2019-06-26T19:27:44.975Z,12.30
2019-06-26T19:32:42.160Z,11.33
2019-06-26T19:37:39.328Z,11.50
2019-06-26T19:42:36.503Z,9.87
2019-06-26T19:47:33.621Z,10.00
2019-06-26T19:57:29.476Z,10.13
2019-06-26T20:02:28.397Z,10.70
2019-06-26T20:07:25.596Z,11.50
2019-06-26T20:12:23.022Z,11.00
2019-06-26T20:17:20.142Z,11.70
2019-06-26T20:22:17.221Z,9.70
2019-06-26T20:27:16.006Z,9.40
2019-06-26T20:32:13.995Z,10.43
2019-06-26T20:37:10.940Z,8.67
2019-06-26T20:42:07.921Z,10.27
2019-06-26T20:47:04.876Z,10.47
2019-06-26T20:52:02.819Z,10.77
2019-06-26T20:56:59.826Z,9.97
2019-06-26T21:01:56.878Z,10.33
2019-06-26T21:06:56.711Z,10.60
2019-06-26T21:11:54.122Z,10.13
2019-06-26T21:16:51.118Z,10.53
2019-06-26T21:21:48.131Z,8.63
2019-06-26T21:26:45.192Z,10.40
2019-06-26T21:31:42.347Z,10.77
2019-06-26T21:36:39.763Z,9.73
2019-06-26T21:41:36.810Z,11.00
2019-06-26T21:46:33.889Z,9.63
2019-06-26T21:51:31.340Z,10.13
2019-06-26T21:56:28.448Z,9.53
2019-06-26T22:01:25.675Z,8.53
2019-06-26T22:06:22.753Z,9.20
2019-06-26T22:11:20.140Z,10.03
2019-06-26T22:16:17.189Z,10.47
2019-06-26T22:21:16.028Z,10.40
2019-06-26T22:26:14.269Z,11.20
2019-06-26T22:31:13.121Z,11.03
2019-06-26T22:36:10.062Z,16.40
2019-06-26T22:41:08.086Z,9.43
2019-06-26T22:46:05.097Z,8.77
2019-06-26T22:51:02.697Z,9.63
2019-06-26T22:56:07.473Z,15.37
2019-06-26T23:01:00.398Z,10.03
2019-06-26T23:05:57.434Z,10.77
2019-06-26T23:10:56.336Z,11.07
2019-06-26T23:15:53.358Z,9.67
2019-06-26T23:20:50.447Z,9.03
2019-06-26T23:25:49.566Z,17.07
2019-06-26T23:30:46.670Z,8.60
2019-06-26T23:35:43.750Z,10.67
2019-06-26T23:40:40.804Z,9.80
2019-06-26T23:45:39.323Z,10.47
2019-06-26T23:50:36.524Z,8.90
2019-06-26T23:55:33.652Z,10.87
